| time (UTC) | temp F | wind direction | speed knots | gust knots | rain 1hr in | rain 24hr in | rain mn in | humidity % | barometer mb |
| 20260508045753 | 40 | 264 | 5.2 | 7.0 | 0.00 | 0.00 | 0.00 | 76 | 1005.0 |
| 20260508045251 | 40 | 244 | 2.6 | 4.3 | 0.00 | 0.00 | 0.00 | 76 | 1005.2 |
| 20260508044749 | 40 | 245 | 2.6 | 4.3 | 0.00 | 0.00 | 0.00 | 75 | 1004.9 |
| 20260508044245 | 40 | 252 | 3.5 | 4.3 | 0.00 | 0.00 | 0.00 | 75 | 1005.1 |
| 20260508043741 | 40 | 220 | 4.3 | 5.2 | 0.00 | 0.00 | 0.00 | 74 | 1005.3 |
| 20260508043239 | 40 | 226 | 3.5 | 5.2 | 0.00 | 0.00 | 0.00 | 74 | 1005.2 |
| 20260508042735 | 40 | 262 | 4.3 | 6.1 | 0.00 | 0.00 | 0.00 | 75 | 1005.2 |
| 20260508042233 | 40 | 242 | 3.5 | 4.3 | 0.00 | 0.00 | 0.00 | 73 | 1005.2 |
| 20260508041729 | 40 | 209 | 4.3 | 4.3 | 0.00 | 0.00 | 0.00 | 73 | 1005.1 |
| 20260508041226 | 39 | 201 | 2.6 | 2.6 | 0.00 | 0.00 | 0.00 | 73 | 1005.4 |
| 20260508040722 | 39 | 223 | 3.5 | 4.3 | 0.00 | 0.00 | 0.00 | 73 | 1005.3 |
| 20260508040220 | 39 | 217 | 1.7 | 1.7 | 0.00 | 0.00 | 0.00 | 74 | 1005.3 |
| 20260508035717 | 39 | 268 | 4.3 | 5.2 | 0.00 | 0.10 | 0.10 | 74 | 1005.4 |
| 20260508035214 | 39 | 255 | 2.6 | 4.3 | 0.00 | 0.10 | 0.10 | 74 | 1005.5 |
| 20260508034710 | 39 | 269 | 2.6 | 4.3 | 0.00 | 0.10 | 0.10 | 75 | 1005.5 |
| 20260508034208 | 40 | 252 | 2.6 | 2.6 | 0.00 | 0.10 | 0.10 | 73 | 1005.6 |
| 20260508033705 | 40 | 204 | 1.7 | 1.7 | 0.00 | 0.10 | 0.10 | 72 | 1005.5 |
| 20260508033204 | 40 | 228 | 2.6 | 4.3 | 0.00 | 0.10 | 0.10 | 72 | 1005.3 |
| 20260508032700 | 40 | 217 | 2.6 | 2.6 | 0.00 | 0.10 | 0.10 | 72 | 1005.4 |
| 20260508032157 | 40 | 209 | 2.6 | 2.6 | 0.00 | 0.10 | 0.10 | 73 | 1005.3 |
| 20260508031654 | 39 | 239 | 2.6 | 2.6 | 0.00 | 0.10 | 0.10 | 74 | 1005.3 |
| 20260508031150 | 39 | 240 | 3.5 | 4.3 | 0.00 | 0.10 | 0.10 | 74 | 1005.3 |
| 20260508030647 | 39 | 223 | 2.6 | 4.3 | 0.00 | 0.10 | 0.10 | 75 | 1005.2 |
| 20260508030145 | 39 | 226 | 2.6 | 2.6 | 0.00 | 0.10 | 0.10 | 76 | 1005.3 |
| 20260508025640 | 38 | 267 | 2.6 | 2.6 | 0.00 | 0.10 | 0.10 | 77 | 1005.3 |
| 20260508025138 | 39 | 212 | 0.9 | 0.9 | 0.00 | 0.10 | 0.10 | 76 | 1005.5 |
| 20260508024633 | 39 | 161 | 0.0 | 0.9 | 0.00 | 0.10 | 0.10 | 76 | 1005.5 |
| 20260508024131 | 38 | 139 | 0.9 | 0.9 | 0.00 | 0.10 | 0.10 | 76 | 1005.4 |
| 20260508023627 | 38 | 89 | 0.9 | 0.9 | 0.00 | 0.10 | 0.10 | 77 | 1005.3 |
| 20260508023125 | 39 | 105 | 1.7 | 1.7 | 0.00 | 0.10 | 0.10 | 76 | 1005.2 |
| 20260508022620 | 41 | 162 | 0.0 | 0.0 | 0.00 | 0.10 | 0.10 | 70 | 1005.2 |
| 20260508022118 | 41 | 190 | 0.0 | 0.0 | 0.00 | 0.10 | 0.10 | 70 | 1005.2 |
| 20260508021613 | 41 | 170 | 0.9 | 0.9 | 0.00 | 0.10 | 0.10 | 70 | 1005.0 |
| 20260508021110 | 41 | 189 | 0.9 | 0.9 | 0.00 | 0.10 | 0.10 | 68 | 1005.1 |
| 20260508020608 | 42 | 175 | 0.0 | 0.0 | 0.00 | 0.10 | 0.10 | 68 | 1005.4 |
| 20260508020105 | 42 | 231 | 0.9 | 1.7 | 0.00 | 0.10 | 0.10 | 68 | 1005.5 |
| 20260508015602 | 42 | 254 | 1.7 | 1.7 | 0.00 | 0.10 | 0.10 | 68 | 1005.5 |
| 20260508015059 | 42 | 260 | 7.0 | 7.0 | 0.00 | 0.10 | 0.10 | 67 | 1005.5 |
| 20260508014555 | 42 | 226 | 3.5 | 4.3 | 0.00 | 0.10 | 0.10 | 69 | 1005.3 |
| 20260508014052 | 42 | 229 | 3.5 | 6.1 | 0.00 | 0.10 | 0.10 | 69 | 1005.4 |
| 20260508013548 | 42 | 241 | 2.6 | 4.3 | 0.00 | 0.10 | 0.10 | 69 | 1005.4 |
| 20260508013045 | 42 | 246 | 2.6 | 2.6 | 0.00 | 0.10 | 0.10 | 68 | 1005.6 |
| 20260508012542 | 43 | 193 | 1.7 | 1.7 | 0.00 | 0.10 | 0.10 | 67 | 1005.6 |
| 20260508012040 | 43 | 273 | 2.6 | 4.3 | 0.00 | 0.10 | 0.10 | 66 | 1005.7 |
| 20260508011538 | 43 | 295 | 3.5 | 4.3 | 0.00 | 0.10 | 0.10 | 65 | 1005.7 |
| 20260508011035 | 43 | 59 | 0.9 | 1.7 | 0.00 | 0.10 | 0.10 | 65 | 1005.8 |
| 20260508010531 | 43 | 55 | 0.9 | 0.9 | 0.00 | 0.10 | 0.10 | 66 | 1005.7 |
| 20260508010029 | 43 | 275 | 2.6 | 2.6 | 0.00 | 0.10 | 0.10 | 64 | 1005.6 |
| 20260508005525 | 44 | 209 | 2.6 | 2.6 | 0.00 | 0.10 | 0.10 | 64 | 1005.6 |
| 20260508005022 | 43 | 217 | 5.2 | 7.0 | 0.00 | 0.10 | 0.10 | 63 | 1005.1 |
| 20260508004518 | 44 | 244 | 0.9 | 1.7 | 0.00 | 0.10 | 0.10 | 64 | 1005.4 |
| 20260508004015 | 43 | 213 | 4.3 | 6.1 | 0.00 | 0.10 | 0.10 | 65 | 1005.4 |
| 20260508003512 | 44 | 228 | 1.7 | 1.7 | 0.00 | 0.10 | 0.10 | 64 | 1005.4 |
| 20260508003009 | 44 | 195 | 0.9 | 1.7 | 0.00 | 0.10 | 0.10 | 64 | 1005.4 |
| 20260508002505 | 43 | 260 | 3.5 | 4.3 | 0.00 | 0.10 | 0.10 | 65 | 1005.2 |
| 20260508002002 | 43 | 225 | 3.5 | 4.3 | 0.00 | 0.10 | 0.10 | 64 | 1005.3 |
| 20260508001458 | 44 | 188 | 1.7 | 1.7 | 0.00 | 0.10 | 0.10 | 65 | 1005.2 |
| 20260508000955 | 44 | 197 | 1.7 | 1.7 | 0.00 | 0.10 | 0.10 | 67 | 1005.2 |
| 20260508000450 | 44 | 233 | 2.6 | 2.6 | 0.00 | 0.10 | 0.10 | 65 | 1005.4 |
| 20260507235948 | 44 | 211 | 2.6 | 2.6 | 0.00 | 0.10 | 0.10 | 64 | 1004.9 |
| 20260507235444 | 45 | 240 | 2.6 | 4.3 | 0.00 | 0.10 | 0.10 | 62 | 1005.2 |
| 20260507234942 | 45 | 258 | 3.5 | 4.3 | 0.00 | 0.10 | 0.10 | 62 | 1005.1 |
| 20260507234438 | 45 | 199 | 2.6 | 4.3 | 0.00 | 0.10 | 0.10 | 61 | 1004.8 |
| 20260507233935 | 45 | 306 | 6.1 | 7.0 | 0.00 | 0.10 | 0.10 | 61 | 1004.8 |
| 20260507233432 | 46 | 254 | 3.5 | 5.2 | 0.00 | 0.10 | 0.10 | 62 | 1004.7 |
| 20260507232930 | 46 | 265 | 5.2 | 7.0 | 0.00 | 0.10 | 0.10 | 61 | 1004.5 |
| 20260507232426 | 46 | 278 | 5.2 | 7.8 | 0.00 | 0.10 | 0.10 | 60 | 1004.9 |
| 20260507231924 | 46 | 261 | 4.3 | 7.8 | 0.00 | 0.10 | 0.10 | 61 | 1004.8 |
| 20260507231420 | 46 | 265 | 7.8 | 11.3 | 0.00 | 0.10 | 0.10 | 60 | 1004.7 |
| 20260507230917 | 46 | 265 | 6.1 | 7.0 | 0.00 | 0.10 | 0.10 | 60 | 1004.6 |
| 20260507230415 | 46 | 279 | 7.8 | 11.3 | 0.00 | 0.10 | 0.10 | 60 | 1004.7 |
| 20260507225914 | 47 | 101 | 6.1 | 7.8 | 0.00 | 0.10 | 0.10 | 59 | 1004.6 |
| 20260507225411 | 47 | 245 | 7.0 | 7.8 | 0.00 | 0.10 | 0.10 | 58 | 1004.5 |
| 20260507224907 | 48 | 264 | 7.8 | 12.2 | 0.00 | 0.10 | 0.10 | 58 | 1004.5 |
| 20260507224403 | 48 | 274 | 4.3 | 5.2 | 0.00 | 0.10 | 0.10 | 56 | 1004.4 |
| 20260507223900 | 48 | 201 | 1.7 | 6.1 | 0.00 | 0.10 | 0.10 | 58 | 1004.2 |
| 20260507223356 | 48 | 301 | 4.3 | 6.1 | 0.00 | 0.10 | 0.10 | 57 | 1004.5 |
| 20260507222853 | 49 | 273 | 7.8 | 12.2 | 0.00 | 0.10 | 0.10 | 57 | 1004.2 |
| 20260507222349 | 50 | 237 | 4.3 | 6.1 | 0.00 | 0.10 | 0.10 | 57 | 1004.2 |
| 20260507221846 | 50 | 267 | 12.2 | 17.4 | 0.00 | 0.10 | 0.10 | 55 | 1003.7 |
| 20260507221343 | 50 | 272 | 6.1 | 9.6 | 0.00 | 0.10 | 0.10 | 56 | 1003.9 |
| 20260507220839 | 50 | 342 | 6.1 | 7.0 | 0.00 | 0.10 | 0.10 | 55 | 1003.7 |
| 20260507220337 | 51 | 217 | 6.1 | 8.7 | 0.00 | 0.10 | 0.10 | 55 | 1003.9 |
| 20260507215833 | 51 | 253 | 13.0 | 20.9 | 0.00 | 0.10 | 0.10 | 55 | 1003.8 |
| 20260507215331 | 51 | 267 | 8.7 | 13.0 | 0.00 | 0.10 | 0.10 | 56 | 1003.7 |
| 20260507214827 | 51 | 324 | 6.1 | 8.7 | 0.00 | 0.10 | 0.10 | 55 | 1003.8 |
| 20260507214325 | 51 | 300 | 4.3 | 7.0 | 0.00 | 0.10 | 0.10 | 55 | 1003.8 |
| 20260507213820 | 52 | 310 | 6.1 | 11.3 | 0.00 | 0.10 | 0.10 | 56 | 1003.6 |
| 20260507213318 | 52 | 269 | 5.2 | 7.8 | 0.00 | 0.10 | 0.10 | 57 | 1003.6 |
| 20260507212814 | 52 | 116 | 2.6 | 4.3 | 0.00 | 0.10 | 0.10 | 57 | 1003.5 |
| 20260507212310 | 51 | 244 | 8.7 | 11.3 | 0.00 | 0.10 | 0.10 | 59 | 1003.4 |
| 20260507211806 | 52 | 26 | 2.6 | 4.3 | 0.00 | 0.10 | 0.10 | 59 | 1003.3 |
| 20260507211303 | 53 | 267 | 7.0 | 8.7 | 0.00 | 0.10 | 0.10 | 58 | 1003.2 |
| 20260507210800 | 53 | 263 | 2.6 | 6.1 | 0.00 | 0.10 | 0.10 | 59 | 1003.2 |
| 20260507210256 | 51 | 235 | 7.0 | 7.8 | 0.00 | 0.10 | 0.10 | 61 | 1003.4 |
| 20260507205753 | 53 | 266 | 5.2 | 7.8 | 0.00 | 0.10 | 0.10 | 59 | 1003.1 |
| 20260507205250 | 53 | 214 | 4.3 | 7.0 | 0.00 | 0.10 | 0.10 | 61 | 1003.3 |
| 20260507204746 | 53 | 313 | 3.5 | 6.1 | 0.00 | 0.10 | 0.10 | 59 | 1002.6 |
| 20260507204244 | 53 | 251 | 7.0 | 7.8 | 0.00 | 0.10 | 0.10 | 60 | 1002.9 |
| 20260507203742 | 54 | 52 | 3.5 | 5.2 | 0.00 | 0.10 | 0.10 | 60 | 1002.7 |
| 20260507203239 | 55 | 276 | 5.2 | 6.1 | 0.00 | 0.10 | 0.10 | 60 | 1002.7 |
| 20260507202735 | 55 | 238 | 2.6 | 4.3 | 0.00 | 0.10 | 0.10 | 59 | 1002.8 |
| 20260507202231 | 53 | 263 | 9.6 | 11.3 | 0.00 | 0.10 | 0.10 | 60 | 1002.7 |
| 20260507201726 | 54 | 182 | 3.5 | 5.2 | 0.00 | 0.10 | 0.10 | 62 | 1002.5 |
| 20260507201223 | 54 | 248 | 4.3 | 6.1 | 0.00 | 0.10 | 0.10 | 62 | 1002.7 |
| 20260507200720 | 53 | 335 | 4.3 | 6.1 | 0.00 | 0.10 | 0.10 | 58 | 1002.3 |
| 20260507200216 | 55 | 323 | 4.3 | 5.2 | 0.00 | 0.10 | 0.10 | 59 | 1002.4 |
| 20260507195712 | 55 | 279 | 2.6 | 2.6 | 0.00 | 0.10 | 0.10 | 60 | 1002.4 |
| 20260507195209 | 56 | 186 | 6.1 | 7.8 | 0.00 | 0.10 | 0.10 | 58 | 1002.4 |
| 20260507194706 | 55 | 255 | 2.6 | 4.3 | 0.00 | 0.10 | 0.10 | 58 | 1002.1 |
| 20260507194202 | 55 | 278 | 4.3 | 6.1 | 0.00 | 0.10 | 0.10 | 58 | 1002.3 |
| 20260507193659 | 54 | 252 | 4.3 | 5.2 | 0.00 | 0.10 | 0.10 | 59 | 1002.3 |
| 20260507193156 | 55 | 285 | 3.5 | 5.2 | 0.00 | 0.10 | 0.10 | 60 | 1002.4 |
| 20260507192652 | 56 | 278 | 2.6 | 2.6 | 0.00 | 0.10 | 0.10 | 59 | 1002.6 |
| 20260507192149 | 56 | 271 | 5.2 | 7.0 | 0.00 | 0.10 | 0.10 | 59 | 1002.3 |
| 20260507191645 | 57 | 272 | 7.8 | 8.7 | 0.00 | 0.10 | 0.10 | 58 | 1002.5 |
| 20260507191142 | 55 | 280 | 10.4 | 13.9 | 0.00 | 0.10 | 0.10 | 61 | 1002.4 |
| 20260507190639 | 55 | 250 | 7.8 | 9.6 | 0.00 | 0.10 | 0.10 | 62 | 1002.2 |
| 20260507190138 | 56 | 250 | 6.1 | 8.7 | 0.00 | 0.10 | 0.10 | 64 | 1002.5 |
| 20260507185636 | 55 | 302 | 2.6 | 2.6 | 0.00 | 0.10 | 0.10 | 70 | 1002.4 |
| 20260507185132 | 53 | 301 | 3.5 | 4.3 | 0.00 | 0.10 | 0.10 | 70 | 1002.7 |
| 20260507184630 | 54 | 209 | 3.5 | 5.2 | 0.00 | 0.10 | 0.10 | 69 | 1002.8 |
| 20260507184128 | 53 | 267 | 6.1 | 7.8 | 0.00 | 0.10 | 0.10 | 72 | 1002.6 |
| 20260507183624 | 53 | 280 | 7.8 | 8.7 | 0.00 | 0.10 | 0.10 | 70 | 1002.7 |
| 20260507183121 | 54 | 294 | 4.3 | 6.1 | 0.00 | 0.10 | 0.10 | 68 | 1002.5 |
| 20260507182617 | 54 | 22 | 4.3 | 6.1 | 0.00 | 0.10 | 0.10 | 67 | 1002.8 |
| 20260507182113 | 54 | 51 | 2.6 | 6.1 | 0.00 | 0.10 | 0.10 | 68 | 1002.9 |
| 20260507181610 | 54 | 262 | 3.5 | 4.3 | 0.00 | 0.10 | 0.10 | 72 | 1002.9 |
| 20260507181106 | 53 | 259 | 5.2 | 6.1 | 0.00 | 0.10 | 0.10 | 71 | 1002.9 |
| 20260507180603 | 53 | 334 | 3.5 | 7.0 | 0.00 | 0.10 | 0.10 | 70 | 1003.0 |
| 20260507180100 | 53 | 233 | 1.7 | 1.7 | 0.00 | 0.10 | 0.10 | 71 | 1002.8 |
| 20260507175556 | 53 | 246 | 8.7 | 11.3 | 0.00 | 0.10 | 0.10 | 68 | 1002.7 |
| 20260507175054 | 54 | 299 | 2.6 | 4.3 | 0.00 | 0.10 | 0.10 | 67 | 1002.7 |
| 20260507174550 | 54 | 239 | 2.6 | 2.6 | 0.00 | 0.10 | 0.10 | 65 | 1002.7 |
| 20260507174048 | 54 | 267 | 4.3 | 5.2 | 0.00 | 0.10 | 0.10 | 66 | 1002.4 |
| 20260507173545 | 55 | 241 | 3.5 | 5.2 | 0.00 | 0.10 | 0.10 | 67 | 1002.9 |
| 20260507173042 | 55 | 248 | 4.3 | 6.1 | 0.00 | 0.10 | 0.10 | 69 | 1002.7 |
| 20260507172538 | 55 | 265 | 3.5 | 4.3 | 0.00 | 0.10 | 0.10 | 66 | 1002.6 |
| 20260507172035 | 54 | 220 | 1.7 | 1.7 | 0.00 | 0.10 | 0.10 | 67 | 1002.9 |
| 20260507171530 | 53 | 185 | 4.3 | 5.2 | 0.00 | 0.10 | 0.10 | 67 | 1002.8 |
| 20260507171028 | 54 | 183 | 8.7 | 14.8 | 0.00 | 0.10 | 0.10 | 65 | 1003.2 |
| 20260507170524 | 53 | 235 | 9.6 | 11.3 | 0.00 | 0.10 | 0.10 | 69 | 1003.0 |
| 20260507170021 | 53 | 218 | 6.1 | 7.0 | 0.00 | 0.10 | 0.10 | 69 | 1003.2 |
| 20260507165517 | 53 | 253 | 5.2 | 7.0 | 0.00 | 0.10 | 0.10 | 68 | 1003.0 |
| 20260507165014 | 53 | 272 | 7.0 | 7.0 | 0.00 | 0.10 | 0.10 | 67 | 1003.2 |
| 20260507164510 | 53 | 245 | 3.5 | 5.2 | 0.00 | 0.10 | 0.10 | 68 | 1003.3 |
| 20260507164007 | 54 | 277 | 3.5 | 4.3 | 0.00 | 0.10 | 0.10 | 66 | 1003.3 |
| 20260507163504 | 54 | 244 | 4.3 | 4.3 | 0.00 | 0.10 | 0.10 | 64 | 1003.1 |
| 20260507163002 | 54 | 266 | 4.3 | 5.2 | 0.00 | 0.10 | 0.10 | 63 | 1003.3 |
| 20260507162457 | 54 | 269 | 4.3 | 5.2 | 0.00 | 0.10 | 0.10 | 66 | 1003.4 |
| 20260507161954 | 54 | 252 | 4.3 | 6.1 | 0.00 | 0.10 | 0.10 | 64 | 1003.1 |
| 20260507161450 | 54 | 236 | 2.6 | 2.6 | 0.00 | 0.10 | 0.10 | 65 | 1003.2 |
| 20260507160947 | 54 | 239 | 4.3 | 5.2 | 0.00 | 0.10 | 0.10 | 64 | 1003.6 |
| 20260507160443 | 54 | 190 | 0.9 | 1.7 | 0.00 | 0.10 | 0.10 | 65 | 1003.5 |
| 20260507155939 | 54 | 214 | 4.3 | 5.2 | 0.00 | 0.10 | 0.10 | 67 | 1003.6 |
| 20260507155435 | 54 | 259 | 4.3 | 4.3 | 0.00 | 0.10 | 0.10 | 67 | 1003.5 |
| 20260507154932 | 54 | 181 | 1.7 | 2.6 | 0.00 | 0.10 | 0.10 | 67 | 1003.4 |
| 20260507154429 | 53 | 199 | 1.7 | 2.6 | 0.00 | 0.10 | 0.10 | 72 | 1003.5 |
| 20260507153926 | 53 | 46 | 1.7 | 1.7 | 0.00 | 0.10 | 0.10 | 72 | 1003.7 |
| 20260507153423 | 53 | 41 | 1.7 | 1.7 | 0.00 | 0.10 | 0.10 | 69 | 1003.9 |
| 20260507152919 | 54 | 343 | 1.7 | 1.7 | 0.00 | 0.10 | 0.10 | 68 | 1003.5 |
| 20260507152415 | 54 | 342 | 3.5 | 4.3 | 0.00 | 0.10 | 0.10 | 71 | 1003.6 |
| 20260507151911 | 53 | 24 | 3.5 | 5.2 | 0.00 | 0.10 | 0.10 | 72 | 1003.6 |
| 20260507151408 | 53 | 174 | 0.0 | 0.0 | 0.00 | 0.10 | 0.10 | 70 | 1003.8 |
| 20260507150905 | 53 | 231 | 0.9 | 1.7 | 0.00 | 0.10 | 0.10 | 72 | 1003.7 |
| 20260507150402 | 55 | 49 | 0.9 | 1.7 | 0.00 | 0.10 | 0.10 | 72 | 1003.9 |
| 20260507145858 | 53 | 229 | 3.5 | 5.2 | 0.00 | 0.10 | 0.10 | 71 | 1003.9 |
| 20260507145354 | 54 | 299 | 2.6 | 2.6 | 0.00 | 0.10 | 0.10 | 76 | 1003.9 |
| 20260507144851 | 55 | 173 | 0.9 | 0.9 | 0.00 | 0.10 | 0.10 | 75 | 1003.8 |
| 20260507144349 | 53 | 257 | 5.2 | 6.1 | 0.00 | 0.10 | 0.10 | 75 | 1004.0 |
| 20260507143845 | 54 | 148 | 3.5 | 4.3 | 0.00 | 0.10 | 0.10 | 77 | 1003.9 |
| 20260507143343 | 52 | 274 | 1.7 | 1.7 | 0.00 | 0.10 | 0.10 | 77 | 1004.0 |
| 20260507142839 | 52 | 290 | 2.6 | 5.2 | 0.00 | 0.10 | 0.10 | 76 | 1004.2 |
| 20260507142335 | 52 | 262 | 9.6 | 11.3 | 0.00 | 0.10 | 0.10 | 77 | 1004.4 |
| 20260507141832 | 52 | 297 | 3.5 | 4.3 | 0.00 | 0.10 | 0.10 | 76 | 1004.4 |
| 20260507141328 | 52 | 261 | 4.3 | 5.2 | 0.00 | 0.10 | 0.10 | 79 | 1004.0 |
| 20260507140825 | 52 | 317 | 1.7 | 2.6 | 0.00 | 0.10 | 0.10 | 77 | 1004.5 |
| 20260507140322 | 53 | 288 | 0.9 | 0.9 | 0.00 | 0.10 | 0.10 | 78 | 1004.2 |
| 20260507135820 | 52 | 39 | 1.7 | 1.7 | 0.00 | 0.10 | 0.10 | 80 | 1004.5 |
| 20260507135316 | 52 | 253 | 2.6 | 4.3 | 0.00 | 0.10 | 0.10 | 83 | 1004.2 |
| 20260507134814 | 51 | 39 | 0.9 | 1.7 | 0.00 | 0.10 | 0.10 | 84 | 1004.2 |
| 20260507134309 | 51 | 222 | 3.5 | 5.2 | 0.00 | 0.10 | 0.10 | 85 | 1004.5 |
| 20260507133805 | 50 | 272 | 4.3 | 6.1 | 0.00 | 0.10 | 0.10 | 84 | 1004.2 |
| 20260507133301 | 50 | 261 | 7.0 | 7.8 | 0.00 | 0.10 | 0.10 | 83 | 1004.2 |
| 20260507132800 | 50 | 180 | 0.9 | 1.7 | 0.00 | 0.10 | 0.10 | 87 | 1004.4 |
| 20260507132256 | 50 | 220 | 0.9 | 1.7 | 0.00 | 0.10 | 0.10 | 86 | 1004.2 |
| 20260507131753 | 50 | 132 | 0.9 | 0.9 | 0.00 | 0.10 | 0.10 | 88 | 1004.6 |
| 20260507131250 | 50 | 9 | 2.6 | 2.6 | 0.00 | 0.10 | 0.10 | 88 | 1004.6 |
| 20260507130747 | 49 | 262 | 4.3 | 6.1 | 0.00 | 0.10 | 0.10 | 88 | 1004.5 |
| 20260507130244 | 49 | 251 | 3.5 | 5.2 | 0.00 | 0.10 | 0.10 | 88 | 1004.7 |
| 20260507125743 | 48 | 13 | 2.6 | 4.3 | 0.00 | 0.10 | 0.10 | 88 | 1004.7 |
| 20260507125240 | 48 | 36 | 2.6 | 4.3 | 0.00 | 0.10 | 0.10 | 89 | 1004.7 |
| 20260507124737 | 47 | 42 | 2.6 | 2.6 | 0.00 | 0.10 | 0.10 | 89 | 1004.7 |
| 20260507124233 | 47 | 240 | 2.6 | 4.3 | 0.00 | 0.10 | 0.10 | 91 | 1004.7 |
| 20260507123732 | 47 | 32 | 1.7 | 1.7 | 0.00 | 0.10 | 0.10 | 90 | 1004.4 |
| 20260507123229 | 46 | 346 | 2.6 | 2.6 | 0.00 | 0.10 | 0.10 | 90 | 1004.6 |
| 20260507122724 | 46 | 253 | 3.5 | 5.2 | 0.00 | 0.10 | 0.10 | 91 | 1004.8 |
| 20260507122220 | 46 | 294 | 6.1 | 7.0 | 0.00 | 0.10 | 0.10 | 91 | 1004.7 |
| 20260507121716 | 46 | 324 | 3.5 | 6.1 | 0.00 | 0.10 | 0.10 | 92 | 1005.0 |
| 20260507121213 | 45 | 14 | 1.7 | 2.6 | 0.00 | 0.10 | 0.10 | 92 | 1004.9 |
| 20260507120709 | 45 | 267 | 2.6 | 2.6 | 0.00 | 0.10 | 0.10 | 93 | 1005.1 |
| 20260507120206 | 44 | 308 | 6.1 | 7.8 | 0.00 | 0.10 | 0.10 | 92 | 1004.9 |
| 20260507115702 | 44 | 295 | 2.6 | 4.3 | 0.00 | 0.10 | 0.10 | 93 | 1004.9 |
| 20260507115158 | 44 | 169 | 0.9 | 0.9 | 0.00 | 0.10 | 0.10 | 94 | 1005.0 |
| 20260507114653 | 43 | 344 | 3.5 | 4.3 | 0.00 | 0.10 | 0.10 | 93 | 1004.7 |
| 20260507114151 | 43 | 165 | 0.0 | 0.0 | 0.00 | 0.10 | 0.10 | 94 | 1004.7 |
| 20260507113648 | 43 | 253 | 3.5 | 6.1 | 0.00 | 0.10 | 0.10 | 94 | 1004.6 |
| 20260507113145 | 43 | 285 | 4.3 | 5.2 | 0.00 | 0.10 | 0.10 | 94 | 1004.6 |
| 20260507112643 | 43 | 303 | 2.6 | 2.6 | 0.00 | 0.10 | 0.10 | 95 | 1004.6 |
| 20260507112139 | 43 | 244 | 1.7 | 1.7 | 0.00 | 0.10 | 0.10 | 96 | 1004.8 |
| 20260507111637 | 43 | 288 | 2.6 | 4.3 | 0.00 | 0.10 | 0.10 | 95 | 1004.6 |
| 20260507111133 | 42 | 195 | 0.9 | 0.9 | 0.00 | 0.10 | 0.10 | 96 | 1004.9 |
| 20260507110629 | 42 | 295 | 2.6 | 4.3 | 0.00 | 0.10 | 0.10 | 96 | 1004.7 |
| 20260507110126 | 42 | 264 | 5.2 | 8.7 | 0.00 | 0.10 | 0.10 | 97 | 1004.9 |
| 20260507105623 | 42 | 217 | 1.7 | 2.6 | 0.00 | 0.10 | 0.10 | 97 | 1005.1 |
| 20260507105119 | 42 | 252 | 3.5 | 4.3 | 0.00 | 0.10 | 0.10 | 97 | 1005.2 |
| 20260507104617 | 42 | 281 | 5.2 | 6.1 | 0.00 | 0.10 | 0.10 | 98 | 1004.8 |
| 20260507104113 | 42 | 274 | 1.7 | 1.7 | 0.00 | 0.10 | 0.10 | 98 | 1004.8 |
| 20260507103609 | 42 | 252 | 3.5 | 4.3 | 0.00 | 0.10 | 0.10 | 98 | 1004.6 |
| 20260507103106 | 42 | 144 | 0.0 | 0.9 | 0.00 | 0.10 | 0.10 | 99 | 1005.0 |
| 20260507102602 | 41 | 201 | 1.7 | 2.6 | 0.00 | 0.10 | 0.10 | 99 | 1004.6 |
| 20260507102059 | 41 | 227 | 2.6 | 2.6 | 0.00 | 0.10 | 0.10 | 99 | 1004.5 |
| 20260507101554 | 41 | 182 | 0.0 | 0.9 | 0.00 | 0.10 | 0.10 | 99 | 1004.4 |
| 20260507101051 | 41 | 152 | 0.0 | 0.9 | 0.00 | 0.10 | 0.10 | 99 | 1004.7 |
| 20260507100548 | 41 | 196 | 0.9 | 0.9 | 0.00 | 0.10 | 0.10 | 99 | 1004.5 |
| 20260507100046 | 41 | 203 | 0.9 | 1.7 | 0.00 | 0.10 | 0.10 | 99 | 1004.4 |
| 20260507095544 | 41 | 223 | 1.7 | 1.7 | 0.00 | 0.10 | 0.10 | 99 | 1004.5 |
| 20260507095040 | 41 | 158 | 0.0 | 0.0 | 0.00 | 0.10 | 0.10 | 99 | 1004.6 |
| 20260507094536 | 41 | 208 | 0.9 | 0.9 | 0.00 | 0.10 | 0.10 | 99 | 1004.2 |
| 20260507094033 | 41 | 78 | 0.9 | 0.9 | 0.00 | 0.10 | 0.10 | 99 | 1004.5 |
| 20260507093531 | 41 | 266 | 2.6 | 2.6 | 0.00 | 0.10 | 0.10 | 99 | 1004.4 |
| 20260507093029 | 41 | 219 | 1.7 | 1.7 | 0.00 | 0.10 | 0.10 | 99 | 1004.6 |
| 20260507092525 | 41 | 217 | 2.6 | 4.3 | 0.00 | 0.10 | 0.10 | 99 | 1004.7 |
| 20260507092022 | 41 | 191 | 1.7 | 1.7 | 0.00 | 0.10 | 0.10 | 99 | 1004.5 |
| 20260507091519 | 41 | 225 | 2.6 | 2.6 | 0.00 | 0.10 | 0.10 | 99 | 1004.1 |
| 20260507091015 | 41 | 155 | 0.0 | 0.0 | 0.00 | 0.10 | 0.10 | 99 | 1003.5 |
| 20260507090511 | 41 | 6 | 0.9 | 1.7 | 0.00 | 0.10 | 0.10 | 99 | 1003.8 |
| 20260507090008 | 41 | 176 | 0.0 | 0.0 | 0.00 | 0.10 | 0.10 | 99 | 1003.7 |
| 20260507085505 | 41 | 180 | 0.0 | 0.0 | 0.00 | 0.10 | 0.10 | 99 | 1003.7 |
| 20260507085001 | 41 | 197 | 2.6 | 2.6 | 0.00 | 0.10 | 0.10 | 99 | 1003.8 |
| 20260507084458 | 41 | 198 | 0.0 | 0.9 | 0.00 | 0.10 | 0.10 | 99 | 1004.0 |
| 20260507083955 | 41 | 354 | 0.9 | 1.7 | 0.00 | 0.10 | 0.10 | 99 | 1004.1 |
| 20260507083452 | 41 | 201 | 1.7 | 1.7 | 0.00 | 0.10 | 0.10 | 99 | 1004.4 |
| 20260507082948 | 41 | 211 | 2.6 | 4.3 | 0.00 | 0.10 | 0.10 | 99 | 1004.7 |
| 20260507082444 | 41 | 256 | 2.6 | 2.6 | 0.00 | 0.10 | 0.10 | 99 | 1004.7 |
| 20260507081941 | 42 | 241 | 3.5 | 4.3 | 0.00 | 0.10 | 0.10 | 99 | 1004.7 |
| 20260507081437 | 42 | 253 | 0.9 | 1.7 | 0.00 | 0.10 | 0.10 | 99 | 1004.2 |
| 20260507080935 | 42 | 88 | 0.9 | 1.7 | 0.00 | 0.10 | 0.10 | 99 | 1004.7 |
| 20260507080430 | 42 | 180 | 1.7 | 1.7 | 0.00 | 0.10 | 0.10 | 99 | 1004.0 |
| 20260507075926 | 41 | 47 | 2.6 | 2.6 | 0.00 | 0.10 | 0.10 | 99 | 1003.8 |
| 20260507075422 | 41 | 169 | 0.0 | 0.9 | 0.00 | 0.10 | 0.10 | 99 | 1004.0 |
| 20260507074919 | 41 | 149 | 0.9 | 0.9 | 0.00 | 0.10 | 0.10 | 99 | 1004.4 |
| 20260507074416 | 41 | 162 | 0.9 | 0.9 | 0.00 | 0.10 | 0.10 | 99 | 1004.1 |
| 20260507073914 | 41 | 249 | 0.9 | 1.7 | 0.00 | 0.10 | 0.10 | 99 | 1004.4 |
| 20260507073410 | 41 | 57 | 1.7 | 1.7 | 0.00 | 0.10 | 0.10 | 99 | 1004.2 |
| 20260507072907 | 41 | 145 | 0.0 | 0.9 | 0.00 | 0.10 | 0.10 | 99 | 1004.1 |
| 20260507072404 | 41 | 352 | 0.9 | 1.7 | 0.00 | 0.10 | 0.10 | 99 | 1003.9 |
| 20260507071902 | 42 | 29 | 2.6 | 2.6 | 0.00 | 0.10 | 0.10 | 99 | 1003.7 |
| 20260507071359 | 42 | 37 | 0.9 | 1.7 | 0.00 | 0.10 | 0.10 | 99 | 1003.4 |
| 20260507070855 | 42 | 48 | 1.7 | 2.6 | 0.00 | 0.10 | 0.10 | 99 | 1003.5 |
| 20260507070353 | 42 | 217 | 4.3 | 7.0 | 0.00 | 0.10 | 0.10 | 99 | 1003.3 |
| 20260507065849 | 42 | 155 | 1.7 | 2.6 | 0.00 | 0.10 | 0.10 | 99 | 1003.5 |
| 20260507065346 | 42 | 309 | 2.6 | 4.3 | 0.00 | 0.10 | 0.10 | 99 | 1003.7 |
| 20260507064843 | 42 | 139 | 0.9 | 0.9 | 0.00 | 0.10 | 0.10 | 99 | 1003.5 |
| 20260507064341 | 42 | 35 | 3.5 | 6.1 | 0.00 | 0.10 | 0.10 | 99 | 1003.8 |
| 20260507063839 | 42 | 99 | 0.0 | 0.9 | 0.00 | 0.10 | 0.10 | 99 | 1003.8 |
| 20260507063335 | 42 | 28 | 0.9 | 1.7 | 0.00 | 0.10 | 0.10 | 99 | 1004.0 |
| 20260507062832 | 42 | 317 | 5.2 | 7.8 | 0.00 | 0.10 | 0.10 | 99 | 1003.5 |
| 20260507062329 | 42 | 337 | 3.5 | 4.3 | 0.00 | 0.10 | 0.10 | 99 | 1003.8 |
| 20260507061827 | 42 | 350 | 2.6 | 2.6 | 0.00 | 0.10 | 0.10 | 99 | 1003.5 |
| 20260507061325 | 43 | 43 | 2.6 | 4.3 | 0.00 | 0.10 | 0.10 | 99 | 1003.3 |
| 20260507060824 | 43 | 46 | 0.9 | 0.9 | 0.00 | 0.10 | 0.10 | 99 | 1003.6 |
| 20260507060320 | 43 | 192 | 1.7 | 2.6 | 0.00 | 0.10 | 0.10 | 99 | 1003.7 |
| 20260507055816 | 43 | 158 | 0.9 | 0.9 | 0.00 | 0.10 | 0.10 | 99 | 1003.8 |
| 20260507055311 | 43 | 183 | 0.0 | 0.9 | 0.00 | 0.10 | 0.10 | 99 | 1003.9 |
| 20260507054808 | 43 | 88 | 0.9 | 1.7 | 0.00 | 0.10 | 0.10 | 99 | 1003.7 |
| 20260507054304 | 43 | 82 | 1.7 | 1.7 | 0.00 | 0.10 | 0.10 | 99 | 1003.4 |
| 20260507053802 | 43 | 313 | 2.6 | 2.6 | 0.05 | 0.10 | 0.10 | 99 | 1003.0 |
| 20260507053259 | 43 | 51 | 1.7 | 1.7 | 0.05 | 0.10 | 0.10 | 99 | 1003.8 |
| 20260507052758 | 43 | 179 | 1.7 | 2.6 | 0.00 | 0.09 | 0.09 | 99 | 1003.7 |
| 20260507052254 | 43 | 306 | 1.7 | 1.7 | 0.00 | 0.09 | 0.09 | 99 | 1003.9 |
| 20260507051753 | 44 | 309 | 1.7 | 1.7 | 0.00 | 0.09 | 0.09 | 99 | 1003.9 |
| 20260507051249 | 44 | 190 | 0.9 | 0.9 | 0.00 | 0.09 | 0.09 | 99 | 1003.6 |
| 20260507050746 | 44 | 239 | 0.9 | 1.7 | 0.00 | 0.09 | 0.09 | 99 | 1003.6 |
| 20260507050243 | 44 | 47 | 4.3 | 6.1 | 0.00 | 0.09 | 0.09 | 99 | 1003.5 |